Terminal Aerodrome Forecast
Issued by NWS Cleveland, OH

Home | Current Version | Previous Version | Graphics & Text | Print | Product List | Glossary On
Versions: 1 2 3 4 5 6 7 8 9 10 11 12 13 14 15 16 17 18 19 20 21
000
FTUS41 KCLE 211730
TAFTOL
TAF
KTOL 211730Z 2118/2218 08012KT P6SM SCT040 OVC100
     FM212000 08010KT 5SM -TSRA BKN025CB OVC040
      TEMPO 2121/2124 VRB20G30KT 1 1/2SM -TSRA OVC012CB
     FM220000 10011KT 5SM -SHRA OVC020
     FM220300 12005KT 5SM BR VCSH OVC012
     FM220900 18004KT 2SM BR BKN008 OVC012=

USA.gov is the U.S. government's official web portal to all federal, state and local government web resources and services.